Decoded Metar for KFCM (MNPLS/FLYING CLD in MN, USA) (IATA:FCM) | Meteo·Mobile Aviation Weather
aviador You're here:

KFCM Decoded Metar

MNPLS/FLYING CLD in MN, USA
Report Time2018-10-20 02:53:00
UTC Time2018-10-20 03:08:36
Flight Rules vfr VFR
Wind290° at 08 kt
W.Decomp.*RWY 28: 7.9 kt HW 1.0 kt RCW
RWY 36: 2.3 kt HW 7.7 kt LCW
W.Rank290° ranks 9
Current wind is below 290° avg. (9.3)
Visibility9999 m
Phenomena:N/A
Clouds:N/A
Expected CloudBase > 4,000 ft AGL from Temp-Dew spread
CeilingNone
Temp11°C (ISA -2)
Dew Point01°C (50% RH)
AAT6.3°C
QNH1013 hPa
Density Alt755 ft
Elevation919 ft
Report Wrong Elevation
Raw Report
KFCM 200253Z AUTO 29008KT 10SM CLR 11/01 A2991 RMK AO2 SLP132
T01110006 51014=

Extra information for KFCM:More info

Metar Taf Metar & Taf Last 4 Metars F.Rules Stats Wind Profile Meteogram Temp Stats Airport Information Weather charts Add Link Nearby VenuesMetar ALERT Operation Metar Decoded Social comments

AIRNAV info for KFCM